Stevens Point, WI

12:08 PM CDT on September 25, 2017 (GMT -0500)
Stevens Point Municipal

Weather History for KSTE - January, 2013

Change the Weather History Date:

Saturday, January 12, 2013

  Actual Average Record
Temperature  
Mean Temperature 28 °F -  
Max Temperature 42 °F 21 °F 42 °F (1986)
Min Temperature 13 °F 3 °F -23 °F (1977)
Degree Days  
Heating Degree Days 37    
Moisture  
Dew Point 21 °F    
Average Humidity 77    
Maximum Humidity 100    
Minimum Humidity 63    
Precipitation  
Precipitation 0.00 in - - ()
Sea Level Pressure  
Sea Level Pressure 29.75 in    
Wind  
Wind Speed 12 mph (WSW)    
Max Wind Speed 26 mph    
Max Gust Speed 33 mph    
Visibility 9 miles    
Events Snow    
Averages and records for this station are not official NWS values.
T = Trace of Precipitation, MM = Missing Value Source: NWS Daily Summary

Daily Weather History Graph

Daily Weather History Graph

Search for Another Location

Airport or City:

Trip Planner

Search our weather history database for the weather conditions in past years. The results will help you decide how hot, cold, wet, or windy it might be!

Date:

Astronomy

Jan. 12, 2013 Rise Set
Actual Time 7:32 AM CST 4:40 PM CST
Civil Twilight 6:59 AM CST 5:13 PM CST
Nautical Twilight 6:23 AM CST 5:49 PM CST
Astronomical Twilight 5:48 AM CST 6:24 PM CST
Moon 7:47 AM CST (1/12) 6:14 PM CST (1/12)
Length of Visible Light 10h 13m
Length of Day
9h 08m
New Moon, 1% of the Moon is Illuminated
Jan 12
New Moon
Jan 18
First Quarter
Jan 26
Full
Feb 3
Last Quarter
Feb 10
New

Hourly Weather History & Observations

Time (CST) Temp. Windchill Dew Point Humidity Pressure Visibility Wind Dir Wind Speed Gust Speed Precip Events Conditions
12:15 AM 38.8 °F 33.2 °F 38.8 °F 100% 29.51 in 1.8 mi South 8.1 mph - N/A   Overcast
12:35 AM 38.7 °F 32.4 °F 38.7 °F 100% 29.50 in 3.0 mi South 9.2 mph - N/A   Scattered Clouds
12:55 AM 39.2 °F 33.0 °F 39.2 °F 100% 29.50 in 4.0 mi South 9.2 mph - N/A   Clear
1:15 AM 39.0 °F 32.8 °F 39.0 °F 100% 29.50 in 5.0 mi South 9.2 mph - N/A   Clear
1:35 AM 39.4 °F 33.2 °F 39.4 °F 100% 29.50 in 5.0 mi South 9.2 mph - N/A   Clear
1:55 AM 39.2 °F 32.0 °F 39.2 °F 100% 29.50 in 7.0 mi South 11.5 mph 16.1 mph N/A   Clear
2:15 AM 39.4 °F 33.2 °F 39.2 °F 99% 29.50 in 7.0 mi South 9.2 mph - N/A   Clear
2:35 AM 39.4 °F 32.7 °F 39.0 °F 99% 29.50 in 10.0 mi South 10.4 mph - N/A   Clear
2:55 AM 38.7 °F 32.4 °F 38.3 °F 99% 29.49 in 7.0 mi South 9.2 mph - N/A   Scattered Clouds
3:15 AM 38.5 °F 33.4 °F 37.8 °F 97% 29.49 in 10.0 mi South 6.9 mph - N/A   Overcast
3:35 AM 38.3 °F 31.9 °F 37.8 °F 98% 29.49 in 10.0 mi South 9.2 mph - N/A   Mostly Cloudy
3:55 AM 38.8 °F 32.1 °F 38.1 °F 97% 29.49 in 10.0 mi SSW 10.4 mph - N/A   Overcast
4:15 AM 38.8 °F 31.6 °F 37.8 °F 96% 29.49 in 10.0 mi SSW 11.5 mph - N/A   Overcast
4:35 AM 40.3 °F 33.4 °F 38.7 °F 94% 29.50 in 10.0 mi SSW 11.5 mph - N/A   Overcast
4:55 AM 41.0 °F 34.3 °F 38.8 °F 92% 29.50 in 10.0 mi SSW 11.5 mph 19.6 mph N/A   Overcast
5:15 AM 42.4 °F 33.5 °F 36.9 °F 81% 29.51 in 10.0 mi SW 20.7 mph 31.1 mph N/A   Overcast
5:35 AM 42.4 °F 33.1 °F 35.6 °F 77% 29.52 in 10.0 mi SW 23.0 mph 31.1 mph N/A   Overcast
5:55 AM 41.9 °F 31.7 °F 34.5 °F 75% 29.54 in 10.0 mi WSW 26.5 mph 33.4 mph N/A   Overcast
6:15 AM 40.3 °F 31.0 °F 32.2 °F 73% 29.56 in 10.0 mi SW 19.6 mph 28.8 mph N/A   Overcast
6:35 AM 39.2 °F 30.2 °F 32.2 °F 76% 29.57 in 10.0 mi WSW 17.3 mph 26.5 mph N/A   Overcast
6:55 AM 38.5 °F 29.9 °F 32.0 °F 78% 29.59 in 10.0 mi SW 15.0 mph 25.3 mph N/A   Overcast
7:15 AM 37.0 °F 28.5 °F 30.9 °F 79% 29.61 in 10.0 mi SW 13.8 mph 28.8 mph N/A   Overcast
7:35 AM 35.6 °F 25.9 °F 29.3 °F 78% 29.63 in 10.0 mi SW 16.1 mph 25.3 mph N/A   Overcast
7:55 AM 33.8 °F 23.5 °F 27.9 °F 79% 29.66 in 10.0 mi WSW 16.1 mph 28.8 mph N/A   Overcast
8:15 AM 32.0 °F 19.2 °F 26.4 °F 80% 29.67 in 10.0 mi SW 23.0 mph 29.9 mph N/A   Overcast
8:35 AM 31.5 °F 20.5 °F 25.3 °F 78% 29.70 in 10.0 mi WSW 16.1 mph 28.8 mph N/A   Overcast
8:55 AM 30.4 °F 18.4 °F 25.0 °F 80% 29.70 in 10.0 mi SW 18.4 mph 26.5 mph N/A   Overcast
9:15 AM 29.3 °F 17.3 °F 22.3 °F 75% 29.72 in 10.0 mi WSW 17.3 mph 29.9 mph N/A   Overcast
9:35 AM 28.4 °F 18.5 °F 22.5 °F 78% 29.74 in 10.0 mi WSW 11.5 mph 24.2 mph N/A   Overcast
9:55 AM 28.0 °F 16.5 °F 21.2 °F 76% 29.74 in 10.0 mi WSW 15.0 mph 26.5 mph N/A   Overcast
10:35 AM 27.3 °F 15.6 °F 21.2 °F 78% 29.77 in 10.0 mi WSW 15.0 mph 21.9 mph N/A   Overcast
10:55 AM 27.1 °F 14.9 °F 20.3 °F 75% 29.77 in 10.0 mi WSW 16.1 mph 28.8 mph N/A   Overcast
11:15 AM 26.4 °F 13.2 °F 18.5 °F 72% 29.79 in 10.0 mi WSW 18.4 mph 27.6 mph N/A   Overcast
11:55 AM 25.7 °F 12.7 °F 16.5 °F 68% 29.79 in 10.0 mi WSW 17.3 mph 28.8 mph N/A   Mostly Cloudy
12:15 PM 25.2 °F 12.4 °F 16.0 °F 68% 29.80 in 10.0 mi WSW 16.1 mph 27.6 mph N/A   Mostly Cloudy
12:35 PM 25.2 °F 11.6 °F 15.8 °F 68% 29.81 in 10.0 mi West 18.4 mph 29.9 mph N/A   Mostly Cloudy
12:55 PM 24.6 °F 12.2 °F 15.8 °F 69% 29.81 in 10.0 mi WSW 15.0 mph 27.6 mph N/A   Overcast
1:15 PM 24.6 °F 10.5 °F 15.6 °F 69% 29.81 in 10.0 mi WSW 19.6 mph 28.8 mph N/A   Scattered Clouds
1:35 PM 24.1 °F 10.6 °F 14.4 °F 66% 29.82 in 10.0 mi West 17.3 mph 25.3 mph N/A   Scattered Clouds
1:55 PM 23.5 °F 11.3 °F 14.4 °F 68% 29.84 in 10.0 mi West 13.8 mph 20.7 mph N/A   Mostly Cloudy
2:15 PM 23.4 °F 9.6 °F 13.6 °F 66% 29.85 in 10.0 mi WSW 17.3 mph 23.0 mph N/A   Overcast
2:35 PM 22.8 °F 12.9 °F 13.1 °F 66% 29.87 in 10.0 mi WSW 9.2 mph 21.9 mph N/A   Mostly Cloudy
2:55 PM 22.6 °F 9.6 °F 12.6 °F 65% 29.88 in 10.0 mi WSW 15.0 mph 20.7 mph N/A   Mostly Cloudy
3:15 PM 22.5 °F 8.9 °F 12.2 °F 65% 29.87 in 10.0 mi WSW 16.1 mph 21.9 mph N/A   Scattered Clouds
3:35 PM 22.5 °F 11.7 °F 12.7 °F 66% 29.87 in 10.0 mi WSW 10.4 mph 16.1 mph N/A   Clear
3:55 PM 22.5 °F 13.2 °F 12.2 °F 65% 29.87 in 10.0 mi WSW 8.1 mph 17.3 mph N/A   Clear
4:35 PM 21.0 °F 9.9 °F 11.1 °F 66% 29.91 in 10.0 mi WSW 10.4 mph 16.1 mph N/A   Scattered Clouds
4:37 PM 21.2 °F 8.9 °F 10.4 °F 63% 29.91 in 10.0 mi West 12.7 mph 17.3 mph N/A   Scattered Clouds
4:55 PM 20.5 °F 8.6 °F 11.1 °F 67% 29.93 in 10.0 mi WSW 11.5 mph 17.3 mph N/A   Scattered Clouds
5:15 PM 20.3 °F 7.2 °F 10.9 °F 67% 29.94 in 10.0 mi WSW 13.8 mph 18.4 mph N/A   Mostly Cloudy
5:35 PM 20.1 °F 9.5 °F 10.9 °F 68% 29.93 in 10.0 mi WSW 9.2 mph 17.3 mph N/A   Overcast
5:55 PM 19.6 °F 8.9 °F 10.6 °F 68% 29.92 in 10.0 mi West 9.2 mph 17.3 mph N/A   Overcast
6:15 PM 19.0 °F 8.2 °F 10.4 °F 69% 29.93 in 10.0 mi West 9.2 mph - N/A   Overcast
6:35 PM 19.0 °F 6.1 °F 10.6 °F 70% 29.93 in 10.0 mi West 12.7 mph - N/A   Overcast
7:15 PM 18.0 °F 7.7 °F 9.9 °F 71% 29.91 in 10.0 mi West 8.1 mph 16.1 mph N/A   Overcast
7:35 PM 17.6 °F 6.4 °F 9.3 °F 70% 29.93 in 10.0 mi West 9.2 mph 16.1 mph N/A   Mostly Cloudy
7:55 PM 17.6 °F 7.3 °F 9.5 °F 71% 29.94 in 10.0 mi West 8.1 mph - N/A   Overcast
8:15 PM 17.6 °F 5.0 °F 9.5 °F 71% 29.96 in 10.0 mi West 11.5 mph 16.1 mph N/A   Overcast
8:35 PM 17.4 °F 6.2 °F 9.5 °F 71% 29.95 in 10.0 mi West 9.2 mph - N/A   Overcast
8:55 PM 17.1 °F 6.6 °F 9.0 °F 71% 29.96 in 10.0 mi West 8.1 mph - N/A   Overcast
9:15 PM 16.7 °F 3.8 °F 8.4 °F 70% 29.97 in 10.0 mi WNW 11.5 mph 18.4 mph N/A   Overcast
9:35 PM 16.2 °F 5.5 °F 8.6 °F 72% 29.94 in 10.0 mi WNW 8.1 mph - N/A   Overcast
9:55 PM 15.8 °F 6.1 °F 8.1 °F 72% 29.95 in 10.0 mi WNW 6.9 mph - N/A   Mostly Cloudy
10:15 PM 15.4 °F 3.8 °F 6.8 °F 69% 29.97 in 10.0 mi West 9.2 mph - N/A   Overcast
10:35 PM 15.3 °F 5.4 °F 6.8 °F 69% 29.99 in 10.0 mi West 6.9 mph - N/A   Overcast
10:55 PM 14.9 °F 4.0 °F 6.8 °F 70% 29.96 in 10.0 mi West 8.1 mph - N/A   Mostly Cloudy
11:15 PM 14.9 °F 7.5 °F 7.3 °F 72% 29.96 in 10.0 mi WNW 4.6 mph - N/A   Overcast
11:35 PM 14.0 °F 3.9 °F 7.2 °F 74% 29.95 in 7.0 mi NW 6.9 mph - N/A Snow Light Snow
11:55 PM 13.6 °F 2.5 °F 5.9 °F 71% 29.93 in 10.0 mi NW 8.1 mph - N/A   Overcast